createdAt,value
2018-04-24T00:01:43.327Z,4.70
2018-04-24T00:04:10.927Z,5.37
2018-04-24T00:06:38.526Z,4.83
2018-04-24T00:09:06.080Z,5.27
2018-04-24T00:11:33.671Z,5.47
2018-04-24T00:14:01.235Z,4.63
2018-04-24T00:16:28.832Z,4.30
2018-04-24T00:18:56.385Z,5.63
2018-04-24T00:21:23.976Z,4.70
2018-04-24T00:23:51.531Z,5.50
2018-04-24T00:26:19.127Z,5.03
2018-04-24T00:28:46.687Z,4.30
2018-04-24T00:31:14.247Z,4.20
2018-04-24T00:33:41.839Z,4.80
2018-04-24T00:36:09.400Z,4.50
2018-04-24T00:38:36.992Z,4.07
2018-04-24T00:41:05.319Z,4.47
2018-04-24T00:43:32.902Z,4.83
2018-04-24T00:46:00.453Z,4.70
2018-04-24T00:48:28.314Z,4.33
2018-04-24T00:50:55.872Z,5.00
2018-04-24T00:53:35.144Z,4.70
2018-04-24T00:56:02.990Z,4.87
2018-04-24T00:58:30.577Z,4.33
2018-04-24T01:00:58.120Z,4.90
2018-04-24T01:03:25.677Z,5.07
2018-04-24T01:05:53.271Z,4.23
2018-04-24T01:08:20.823Z,4.07
2018-04-24T01:10:48.418Z,4.57
2018-04-24T01:13:15.966Z,4.47
2018-04-24T01:15:43.557Z,5.17
2018-04-24T01:18:11.113Z,4.17
2018-04-24T01:20:38.792Z,4.27
2018-04-24T01:23:06.385Z,4.53
2018-04-24T01:25:33.976Z,4.40
2018-04-24T01:28:01.573Z,4.60
2018-04-24T01:30:29.147Z,4.93
2018-04-24T01:32:56.739Z,4.80
2018-04-24T01:35:24.329Z,5.37
2018-04-24T01:37:51.885Z,5.07
2018-04-24T01:40:19.479Z,5.57
2018-04-24T01:42:47.032Z,5.60
2018-04-24T01:45:14.599Z,6.00
2018-04-24T01:47:42.183Z,6.40
2018-04-24T01:50:09.740Z,6.30
2018-04-24T01:52:37.328Z,6.70
2018-04-24T01:55:04.878Z,6.70
2018-04-24T01:57:32.476Z,7.23
2018-04-24T02:00:00.237Z,6.60
2018-04-24T02:02:27.781Z,7.07
2018-04-24T02:04:55.371Z,6.63
2018-04-24T02:07:23.031Z,6.53
2018-04-24T02:09:50.588Z,7.07
2018-04-24T02:12:18.152Z,7.83
2018-04-24T02:14:45.738Z,8.10
2018-04-24T02:17:13.341Z,8.37
2018-04-24T02:19:40.960Z,8.00
2018-04-24T02:22:08.577Z,7.37
2018-04-24T02:24:36.144Z,8.73
2018-04-24T02:27:03.747Z,7.80
2018-04-24T02:29:31.350Z,8.30
2018-04-24T02:31:58.910Z,7.90
2018-04-24T02:34:26.508Z,9.03
2018-04-24T02:36:54.089Z,8.47
2018-04-24T02:39:21.689Z,9.50
2018-04-24T02:41:49.257Z,8.73
2018-04-24T02:44:16.867Z,9.00
2018-04-24T02:46:44.432Z,9.87
2018-04-24T02:49:11.989Z,9.90
2018-04-24T02:51:39.655Z,8.27
2018-04-24T02:54:07.207Z,9.87
2018-04-24T02:56:34.822Z,9.30
2018-04-24T02:59:02.396Z,9.50
2018-04-24T03:01:29.987Z,9.53
2018-04-24T03:03:57.588Z,9.17
2018-04-24T03:06:25.955Z,9.80
2018-04-24T03:08:54.288Z,9.17
2018-04-24T03:11:21.878Z,9.73
2018-04-24T03:13:49.504Z,9.60
2018-04-24T03:16:17.064Z,9.00
2018-04-24T03:18:44.663Z,8.73
2018-04-24T03:21:12.229Z,9.80
2018-04-24T03:23:39.832Z,10.00
2018-04-24T03:26:07.424Z,8.60
2018-04-24T03:28:34.996Z,8.40
2018-04-24T03:31:02.613Z,9.17
2018-04-24T03:33:30.172Z,9.57
2018-04-24T03:35:57.733Z,9.43
2018-04-24T03:38:25.319Z,9.87
2018-04-24T03:40:52.911Z,9.10
2018-04-24T03:43:20.512Z,9.70
2018-04-24T03:45:48.064Z,9.73
2018-04-24T03:48:16.389Z,8.90
2018-04-24T03:50:44.038Z,9.43
2018-04-24T03:53:11.621Z,9.37
2018-04-24T03:55:39.211Z,8.43
2018-04-24T03:58:06.851Z,9.00
2018-04-24T04:00:34.452Z,8.70
2018-04-24T04:03:02.047Z,8.93
2018-04-24T04:05:29.604Z,8.93
2018-04-24T04:07:57.293Z,8.50
2018-04-24T04:10:24.849Z,9.67
2018-04-24T04:12:52.404Z,9.13
2018-04-24T04:15:20.015Z,9.27
2018-04-24T04:18:00.037Z,9.47
2018-04-24T04:20:39.337Z,8.93
2018-04-24T04:23:18.651Z,9.03
2018-04-24T04:25:47.140Z,9.07
2018-04-24T04:28:14.746Z,9.13
2018-04-24T04:30:42.300Z,8.67
2018-04-24T04:33:09.882Z,8.77
2018-04-24T04:35:37.435Z,9.53
2018-04-24T04:38:05.196Z,7.90
2018-04-24T04:40:32.796Z,9.13
2018-04-24T04:43:00.396Z,9.67
2018-04-24T04:45:27.948Z,9.63
2018-04-24T04:47:55.621Z,9.83
2018-04-24T04:50:23.116Z,8.97
2018-04-24T04:52:50.720Z,9.03
2018-04-24T04:55:18.271Z,9.47
2018-04-24T04:57:45.837Z,9.23
2018-04-24T05:00:13.426Z,9.03
2018-04-24T05:02:41.076Z,9.67
2018-04-24T05:05:08.802Z,10.57
2018-04-24T05:07:36.348Z,9.33
2018-04-24T05:10:03.908Z,11.47
2018-04-24T05:12:31.503Z,11.97
2018-04-24T05:14:59.061Z,11.90
2018-04-24T05:17:26.688Z,11.33
2018-04-24T05:19:54.284Z,10.77
2018-04-24T05:22:21.853Z,11.27
2018-04-24T05:24:49.497Z,11.07
2018-04-24T05:27:17.064Z,12.10
2018-04-24T05:29:44.635Z,12.07
2018-04-24T05:32:12.234Z,11.37
2018-04-24T05:34:40.120Z,11.50
2018-04-24T05:37:07.870Z,11.40
2018-04-24T05:39:35.439Z,11.87
2018-04-24T05:42:03.061Z,12.27
2018-04-24T05:44:30.615Z,13.23
2018-04-24T05:46:58.176Z,13.40
2018-04-24T05:49:25.771Z,12.77
2018-04-24T05:51:53.329Z,13.87
2018-04-24T05:54:20.929Z,13.83
2018-04-24T05:56:48.541Z,13.50
2018-04-24T05:59:16.091Z,13.73
2018-04-24T06:01:43.715Z,12.93
2018-04-24T06:04:12.060Z,12.63
2018-04-24T06:06:39.669Z,13.27
2018-04-24T06:09:07.216Z,13.60
2018-04-24T06:11:34.816Z,12.67
2018-04-24T06:14:02.389Z,12.57
2018-04-24T06:16:29.979Z,13.07
2018-04-24T06:18:57.551Z,12.60
2018-04-24T06:21:25.395Z,13.03
2018-04-24T06:23:52.952Z,14.50
2018-04-24T06:26:21.453Z,14.53
2018-04-24T06:28:49.091Z,14.47
2018-04-24T06:31:16.711Z,15.07
2018-04-24T06:33:44.289Z,13.50
2018-04-24T06:36:11.936Z,13.70
2018-04-24T06:38:39.547Z,14.20
2018-04-24T06:41:07.172Z,15.20
2018-04-24T06:43:34.786Z,15.30
2018-04-24T06:46:03.126Z,16.33
2018-04-24T06:48:30.753Z,16.27
2018-04-24T06:50:58.318Z,15.47
2018-04-24T06:53:25.947Z,16.77
2018-04-24T06:55:53.512Z,16.17
2018-04-24T06:58:21.078Z,15.77
2018-04-24T07:00:49.579Z,16.73
2018-04-24T07:03:17.133Z,16.17
2018-04-24T07:05:45.029Z,15.97
2018-04-24T07:08:12.588Z,16.67
2018-04-24T07:10:40.492Z,17.60
2018-04-24T07:13:08.061Z,17.50
2018-04-24T07:15:35.659Z,18.30
2018-04-24T07:18:03.220Z,16.03
2018-04-24T07:20:30.825Z,18.00
2018-04-24T07:22:58.387Z,17.73
2018-04-24T07:25:25.993Z,17.10
2018-04-24T07:27:53.618Z,16.03
2018-04-24T07:30:21.229Z,15.83
2018-04-24T07:32:48.838Z,16.97
2018-04-24T07:35:16.427Z,16.53
2018-04-24T07:37:44.069Z,16.27
2018-04-24T07:40:11.689Z,16.43
2018-04-24T07:42:39.305Z,16.57
2018-04-24T07:45:07.734Z,16.23
2018-04-24T07:47:35.357Z,16.00
2018-04-24T07:50:02.958Z,16.63
2018-04-24T07:52:30.616Z,16.73
2018-04-24T07:54:58.211Z,15.60
2018-04-24T07:57:25.790Z,15.70
2018-04-24T07:59:53.423Z,14.43
2018-04-24T08:02:20.999Z,15.27
2018-04-24T08:04:48.616Z,14.00
2018-04-24T08:07:16.212Z,14.03
2018-04-24T08:09:43.828Z,14.77
2018-04-24T08:12:11.430Z,15.23
2018-04-24T08:14:39.073Z,13.00
2018-04-24T08:17:06.635Z,13.63
2018-04-24T08:19:34.203Z,13.80
2018-04-24T08:22:01.796Z,13.87
2018-04-24T08:24:29.359Z,14.37
2018-04-24T08:26:56.965Z,13.37
2018-04-24T08:29:24.539Z,13.57
2018-04-24T08:31:52.136Z,12.90
2018-04-24T08:34:19.707Z,13.37
2018-04-24T08:36:47.358Z,13.40
2018-04-24T08:39:14.971Z,13.17
2018-04-24T08:41:42.540Z,12.57
2018-04-24T08:44:10.142Z,13.77
2018-04-24T08:46:37.703Z,12.70
2018-04-24T08:49:05.334Z,12.60
2018-04-24T08:51:32.945Z,12.87
2018-04-24T08:54:00.550Z,12.40
2018-04-24T08:56:28.316Z,13.17
2018-04-24T08:58:56.605Z,12.20
2018-04-24T09:01:24.188Z,12.37
2018-04-24T09:03:51.808Z,12.77
2018-04-24T09:06:19.400Z,12.30
2018-04-24T09:08:47.021Z,12.40
2018-04-24T09:11:14.584Z,12.23
2018-04-24T09:13:42.191Z,12.53
2018-04-24T09:16:09.775Z,12.40
2018-04-24T09:18:38.298Z,12.93
2018-04-24T09:21:05.893Z,12.40
2018-04-24T09:23:33.488Z,12.23
2018-04-24T09:26:01.114Z,12.90
2018-04-24T09:28:28.886Z,12.20
2018-04-24T09:30:56.443Z,13.07
2018-04-24T09:33:24.098Z,13.50
2018-04-24T09:35:51.637Z,12.70
2018-04-24T09:38:19.219Z,13.53
2018-04-24T09:40:46.820Z,12.73
2018-04-24T09:43:15.148Z,13.00
2018-04-24T09:45:42.749Z,13.33
2018-04-24T09:48:10.392Z,13.07
2018-04-24T09:50:37.968Z,12.47
2018-04-24T09:53:05.579Z,13.43
2018-04-24T09:55:33.183Z,11.73
2018-04-24T09:58:00.740Z,11.93
2018-04-24T10:00:34.024Z,12.00
2018-04-24T10:03:01.787Z,12.23
2018-04-24T10:05:29.347Z,13.00
2018-04-24T10:07:56.948Z,13.07
2018-04-24T10:10:24.533Z,12.67
2018-04-24T10:12:52.164Z,12.13
2018-04-24T10:15:19.769Z,13.07
2018-04-24T10:17:47.371Z,12.50
2018-04-24T10:20:14.932Z,12.23
2018-04-24T10:22:42.628Z,12.90
2018-04-24T10:25:10.198Z,12.33
2018-04-24T10:27:37.822Z,12.03
2018-04-24T10:30:05.445Z,12.47
2018-04-24T10:32:33.066Z,12.63
2018-04-24T10:35:00.692Z,12.43
2018-04-24T10:37:28.359Z,11.47
2018-04-24T10:39:56.027Z,11.93
2018-04-24T10:42:23.639Z,10.77
2018-04-24T10:44:51.230Z,11.67
2018-04-24T10:47:19.465Z,9.47
2018-04-24T10:49:47.143Z,8.33
2018-04-24T10:52:14.734Z,8.63
2018-04-24T10:54:42.339Z,7.87
2018-04-24T10:57:10.013Z,7.90
2018-04-24T10:59:37.611Z,6.33
2018-04-24T11:02:05.241Z,7.00
2018-04-24T11:04:34.293Z,7.00
2018-04-24T11:07:02.945Z,6.87
2018-04-24T11:09:33.133Z,6.67
2018-04-24T11:12:01.401Z,7.00
2018-04-24T11:14:31.456Z,6.90
2018-04-24T11:17:05.408Z,7.10
2018-04-24T11:19:34.094Z,6.53
2018-04-24T11:22:03.994Z,6.53
2018-04-24T11:24:33.726Z,6.77
2018-04-24T11:27:01.924Z,6.77
2018-04-24T11:29:31.414Z,6.67
2018-04-24T11:31:59.328Z,7.77
2018-04-24T11:34:28.453Z,7.77
2018-04-24T11:36:57.258Z,7.40
2018-04-24T11:39:26.180Z,7.23
2018-04-24T11:41:53.831Z,7.90
2018-04-24T11:44:21.396Z,7.53
2018-04-24T11:46:48.954Z,7.50
2018-04-24T11:49:17.625Z,7.77
2018-04-24T11:51:46.007Z,7.60
2018-04-24T11:54:14.437Z,7.70
2018-04-24T11:56:42.034Z,7.07
2018-04-24T11:59:09.638Z,7.13
2018-04-24T12:01:37.249Z,7.47
2018-04-24T12:04:04.853Z,7.10
2018-04-24T12:06:32.410Z,7.33
2018-04-24T12:09:00.004Z,6.90
2018-04-24T12:11:27.568Z,6.93
2018-04-24T12:13:55.167Z,6.47
2018-04-24T12:16:22.729Z,7.87
2018-04-24T12:18:50.375Z,6.87
2018-04-24T12:21:18.007Z,7.10
2018-04-24T12:23:45.796Z,6.50
2018-04-24T12:26:14.518Z,6.37
2018-04-24T12:28:43.999Z,6.83
2018-04-24T12:31:11.624Z,6.30
2018-04-24T12:33:40.863Z,5.33
2018-04-24T12:36:08.556Z,5.20
2018-04-24T12:38:37.282Z,5.50
2018-04-24T12:41:05.645Z,4.90
2018-04-24T12:43:34.354Z,5.30
2018-04-24T12:46:02.117Z,4.90
2018-04-24T12:48:29.844Z,5.07
2018-04-24T12:50:59.491Z,4.97
2018-04-24T12:53:30.881Z,5.50
2018-04-24T12:56:00.041Z,5.00
2018-04-24T12:58:27.797Z,5.40
2018-04-24T13:00:56.608Z,5.07
2018-04-24T13:03:24.269Z,4.77
2018-04-24T13:05:51.846Z,5.00
2018-04-24T13:08:19.477Z,5.07
2018-04-24T13:10:47.141Z,5.20
2018-04-24T13:13:15.444Z,5.37
2018-04-24T13:15:48.839Z,5.30
2018-04-24T13:18:16.466Z,4.30
2018-04-24T13:20:44.163Z,4.23
2018-04-24T13:23:11.750Z,4.67
2018-04-24T13:25:41.459Z,4.80
2018-04-24T13:28:09.135Z,5.67
2018-04-24T13:30:37.456Z,4.87
2018-04-24T13:33:05.084Z,5.50
2018-04-24T13:35:32.637Z,4.70
2018-04-24T13:38:00.246Z,5.63
2018-04-24T13:40:28.001Z,6.57
2018-04-24T13:42:55.567Z,5.87
2018-04-24T13:45:23.184Z,5.37
2018-04-24T13:47:50.754Z,6.93
2018-04-24T13:50:18.466Z,6.70
2018-04-24T13:52:46.067Z,6.70
2018-04-24T13:55:13.910Z,6.97
2018-04-24T13:57:41.505Z,6.73
2018-04-24T14:00:10.876Z,6.67
2018-04-24T14:02:38.442Z,5.37
2018-04-24T14:05:06.065Z,5.50
2018-04-24T14:07:33.691Z,5.57
2018-04-24T14:10:01.256Z,5.50
2018-04-24T14:12:28.947Z,4.10
2018-04-24T14:14:56.509Z,4.40
2018-04-24T14:17:24.105Z,3.57
2018-04-24T14:19:51.668Z,3.50
2018-04-24T14:22:19.273Z,2.77
2018-04-24T14:24:46.904Z,2.60
2018-04-24T14:27:14.424Z,2.83
2018-04-24T14:29:42.026Z,2.67
2018-04-24T14:32:10.353Z,2.57
2018-04-24T14:34:37.947Z,2.87
2018-04-24T14:37:05.612Z,3.00
2018-04-24T14:39:33.208Z,2.83
2018-04-24T14:42:00.769Z,3.47
2018-04-24T14:44:28.395Z,3.80
2018-04-24T14:46:55.961Z,3.10
2018-04-24T14:49:23.564Z,3.07
2018-04-24T14:51:51.314Z,3.60
2018-04-24T14:54:18.893Z,3.00
2018-04-24T14:56:46.497Z,2.80
2018-04-24T14:59:14.068Z,2.00
2018-04-24T15:01:41.682Z,2.93
2018-04-24T15:04:09.333Z,2.93
2018-04-24T15:06:42.678Z,3.40
2018-04-24T15:09:10.262Z,3.03
2018-04-24T15:11:38.664Z,3.03
2018-04-24T15:14:06.289Z,2.53
2018-04-24T15:16:33.860Z,3.03
2018-04-24T15:19:02.232Z,3.23
2018-04-24T15:21:29.800Z,3.10
2018-04-24T15:23:58.164Z,3.67
2018-04-24T15:26:25.729Z,2.97
2018-04-24T15:28:53.362Z,2.37
2018-04-24T15:31:20.937Z,3.20
2018-04-24T15:33:48.528Z,2.70
2018-04-24T15:36:16.974Z,2.93
2018-04-24T15:38:44.536Z,2.00
2018-04-24T15:41:12.142Z,2.10
2018-04-24T15:43:39.717Z,2.70
2018-04-24T15:46:07.314Z,2.47
2018-04-24T15:48:34.877Z,2.60
2018-04-24T15:51:02.513Z,2.47
2018-04-24T15:53:30.111Z,2.30
2018-04-24T15:55:57.669Z,2.67
2018-04-24T15:58:25.324Z,2.13
2018-04-24T16:00:53.065Z,3.47
2018-04-24T16:03:20.666Z,1.90
2018-04-24T16:05:48.267Z,2.60
2018-04-24T16:08:15.890Z,2.23
2018-04-24T16:10:43.496Z,2.20
2018-04-24T16:13:11.095Z,2.67
2018-04-24T16:15:38.654Z,2.23
2018-04-24T16:18:06.277Z,2.47
2018-04-24T16:20:33.838Z,2.47
2018-04-24T16:23:01.419Z,3.07
2018-04-24T16:25:29.029Z,2.50
2018-04-24T16:27:56.604Z,2.50
2018-04-24T16:30:24.972Z,2.77
2018-04-24T16:32:53.296Z,2.33
2018-04-24T16:35:20.896Z,2.10
2018-04-24T16:37:48.457Z,2.40
2018-04-24T16:40:16.075Z,2.70
2018-04-24T16:42:43.644Z,2.20
2018-04-24T16:45:11.277Z,2.20
2018-04-24T16:47:38.840Z,2.43
2018-04-24T16:50:06.406Z,2.43
2018-04-24T16:52:34.036Z,1.90
2018-04-24T16:55:01.609Z,2.37
2018-04-24T16:57:29.244Z,2.17
2018-04-24T16:59:56.840Z,7.97
2018-04-24T17:02:24.444Z,3.13
2018-04-24T17:04:52.073Z,2.27
2018-04-24T17:07:19.680Z,3.10
2018-04-24T17:09:47.241Z,2.83
2018-04-24T17:12:14.849Z,2.53
2018-04-24T17:14:42.417Z,3.27
2018-04-24T17:17:10.021Z,2.90
2018-04-24T17:19:37.592Z,2.83
2018-04-24T17:22:05.161Z,3.13
2018-04-24T17:24:32.765Z,2.87
2018-04-24T17:27:00.329Z,3.10
2018-04-24T17:29:27.947Z,3.00
2018-04-24T17:31:56.287Z,3.00
2018-04-24T17:34:23.854Z,3.73
2018-04-24T17:36:51.466Z,4.23
2018-04-24T17:39:19.024Z,3.93
2018-04-24T17:41:47.395Z,4.00
2018-04-24T17:44:15.728Z,20.47
2018-04-24T17:46:43.344Z,9.00
2018-04-24T17:49:10.908Z,4.43
2018-04-24T17:51:38.475Z,4.57
2018-04-24T17:54:07.480Z,4.90
2018-04-24T17:56:35.051Z,5.40
2018-04-24T17:59:02.618Z,4.53
2018-04-24T18:01:31.803Z,5.33
2018-04-24T18:03:59.412Z,5.13
2018-04-24T18:06:27.025Z,6.47
2018-04-24T18:08:54.653Z,5.90
2018-04-24T18:11:23.061Z,4.73
2018-04-24T18:13:51.382Z,5.17
2018-04-24T18:16:18.994Z,5.63
2018-04-24T18:18:46.552Z,5.43
2018-04-24T18:21:14.161Z,5.63
2018-04-24T18:23:41.730Z,4.90
2018-04-24T18:26:09.350Z,6.27
2018-04-24T18:28:36.929Z,5.77
2018-04-24T18:31:04.599Z,6.57
2018-04-24T18:33:32.205Z,4.83
2018-04-24T18:35:59.774Z,5.77
2018-04-24T18:38:28.147Z,4.87
2018-04-24T18:40:56.472Z,5.10
2018-04-24T18:43:24.420Z,5.80
2018-04-24T18:45:52.925Z,6.00
2018-04-24T18:48:20.493Z,5.77
2018-04-24T18:50:48.093Z,5.33
2018-04-24T18:53:15.719Z,5.80
2018-04-24T18:55:43.285Z,5.90
2018-04-24T18:58:10.844Z,6.20
2018-04-24T19:00:38.462Z,7.03
2018-04-24T19:03:06.042Z,7.10
2018-04-24T19:05:33.640Z,6.47
2018-04-24T19:08:01.214Z,6.73
2018-04-24T19:10:28.817Z,6.97
2018-04-24T19:12:56.382Z,6.77
2018-04-24T19:15:23.987Z,5.67
2018-04-24T19:17:51.594Z,6.97
2018-04-24T19:20:19.200Z,6.60
2018-04-24T19:22:46.769Z,6.60
2018-04-24T19:25:20.703Z,6.67
2018-04-24T19:27:48.262Z,5.87
2018-04-24T19:30:15.880Z,6.67
2018-04-24T19:32:43.442Z,6.87
2018-04-24T19:35:11.004Z,6.37
2018-04-24T19:37:38.609Z,6.63
2018-04-24T19:40:11.828Z,5.83
2018-04-24T19:42:39.420Z,5.73
2018-04-24T19:45:06.981Z,5.60
2018-04-24T19:47:34.632Z,5.97
2018-04-24T19:50:07.925Z,6.27
2018-04-24T19:52:35.528Z,6.03
2018-04-24T19:55:09.605Z,6.47
2018-04-24T19:57:37.254Z,5.83
2018-04-24T20:00:04.931Z,6.30
2018-04-24T20:02:32.492Z,6.73
2018-04-24T20:05:00.095Z,5.83
2018-04-24T20:07:27.656Z,6.07
2018-04-24T20:09:56.020Z,6.23
2018-04-24T20:12:23.615Z,6.03
2018-04-24T20:14:51.218Z,5.80
2018-04-24T20:17:18.795Z,6.50
2018-04-24T20:19:46.373Z,7.17
2018-04-24T20:22:13.982Z,7.97
2018-04-24T20:24:43.409Z,7.00
2018-04-24T20:27:11.008Z,8.43
2018-04-24T20:29:39.378Z,8.10
2018-04-24T20:32:07.769Z,8.23
2018-04-24T20:34:36.097Z,8.33
2018-04-24T20:37:03.661Z,8.57
2018-04-24T20:39:31.263Z,8.97
2018-04-24T20:41:58.833Z,7.83
2018-04-24T20:44:27.195Z,8.53
2018-04-24T20:46:55.521Z,9.13
2018-04-24T20:49:23.114Z,8.37
2018-04-24T20:51:51.445Z,8.23
2018-04-24T20:54:19.051Z,9.73
2018-04-24T20:56:46.617Z,8.37
2018-04-24T20:59:14.524Z,9.77
2018-04-24T21:01:42.084Z,9.87
2018-04-24T21:04:09.703Z,7.97
2018-04-24T21:06:37.269Z,9.67
2018-04-24T21:09:06.176Z,10.17
2018-04-24T21:11:34.412Z,9.40
2018-04-24T21:14:02.630Z,9.60
2018-04-24T21:16:30.960Z,9.60
2018-04-24T21:18:58.552Z,11.07
2018-04-24T21:21:26.160Z,11.07
2018-04-24T21:23:54.049Z,10.97
2018-04-24T21:26:21.617Z,11.23
2018-04-24T21:28:49.284Z,11.20
2018-04-24T21:31:16.854Z,11.77
2018-04-24T21:33:44.520Z,13.27
2018-04-24T21:36:12.085Z,12.17
2018-04-24T21:38:39.670Z,11.33
2018-04-24T21:41:08.049Z,13.13
2018-04-24T21:43:36.787Z,13.27
2018-04-24T21:46:04.409Z,13.03
2018-04-24T21:48:31.978Z,14.17
2018-04-24T21:51:00.589Z,14.93
2018-04-24T21:53:28.157Z,15.00
2018-04-24T21:55:56.205Z,13.40
2018-04-24T21:58:24.916Z,15.37
2018-04-24T22:00:52.677Z,15.17
2018-04-24T22:03:22.644Z,14.73
2018-04-24T22:05:51.253Z,15.00
2018-04-24T22:08:19.046Z,14.90
2018-04-24T22:10:47.009Z,16.13
2018-04-24T22:13:15.160Z,16.27
2018-04-24T22:15:42.772Z,17.37
2018-04-24T22:18:10.568Z,16.30
2018-04-24T22:20:38.141Z,18.40
2018-04-24T22:23:06.517Z,18.00
2018-04-24T22:25:34.893Z,19.60
2018-04-24T22:28:03.270Z,19.10
2018-04-24T22:30:31.644Z,20.33
2018-04-24T22:32:59.985Z,20.57
2018-04-24T22:35:27.614Z,19.53
2018-04-24T22:37:55.220Z,19.73
2018-04-24T22:40:22.781Z,20.50
2018-04-24T22:42:50.378Z,21.97
2018-04-24T22:45:17.984Z,22.40
2018-04-24T22:47:45.549Z,24.53
2018-04-24T22:50:13.165Z,24.93
2018-04-24T22:52:41.501Z,26.37
2018-04-24T22:55:09.081Z,28.13
2018-04-24T22:57:36.692Z,29.50
2018-04-24T23:00:04.270Z,30.37
2018-04-24T23:02:31.834Z,30.70
2018-04-24T23:04:59.436Z,31.30
2018-04-24T23:07:27.802Z,31.93
2018-04-24T23:09:55.016Z,30.27
2018-04-24T23:12:34.367Z,36.23
2018-04-24T23:15:13.685Z,37.33
2018-04-24T23:17:52.903Z,37.47
2018-04-24T23:20:20.025Z,42.23
2018-04-24T23:22:47.596Z,44.77
2018-04-24T23:25:15.332Z,42.57
2018-04-24T23:27:43.164Z,46.33
2018-04-24T23:30:10.929Z,42.93
2018-04-24T23:32:38.545Z,45.20
2018-04-24T23:35:06.115Z,43.53
2018-04-24T23:37:34.485Z,44.10
2018-04-24T23:40:02.823Z,42.90
2018-04-24T23:42:30.430Z,46.33
2018-04-24T23:44:58.005Z,44.30
2018-04-24T23:47:25.620Z,47.57
2018-04-24T23:49:53.194Z,49.67
2018-04-24T23:52:20.812Z,47.60
2018-04-24T23:54:48.381Z,50.83
2018-04-24T23:57:16.009Z,48.67
2018-04-24T23:59:43.589Z,47.73
